createdAt,value
2022-09-13T00:01:42.237Z,22.10
2022-09-13T00:05:05.437Z,22.10
2022-09-13T00:08:28.354Z,22.10
2022-09-13T00:11:53.130Z,22.00
2022-09-13T00:15:16.580Z,22.00
2022-09-13T00:18:39.545Z,22.00
2022-09-13T00:22:02.447Z,21.90
2022-09-13T00:25:25.414Z,22.10
2022-09-13T00:28:52.635Z,22.10
2022-09-13T00:32:15.567Z,22.00
2022-09-13T00:35:38.487Z,21.70
2022-09-13T00:39:01.897Z,21.70
2022-09-13T00:42:26.682Z,21.70
2022-09-13T00:45:51.158Z,21.60
2022-09-13T00:49:18.211Z,21.50
2022-09-13T00:52:46.558Z,21.50
2022-09-13T00:56:14.112Z,21.70
2022-09-13T00:59:41.880Z,21.80
2022-09-13T01:03:11.498Z,21.80
2022-09-13T01:06:37.866Z,21.80
2022-09-13T01:10:01.461Z,21.80
2022-09-13T01:13:26.752Z,21.80
2022-09-13T01:16:49.903Z,21.50
2022-09-13T01:20:15.393Z,21.50
2022-09-13T01:23:56.665Z,21.50
2022-09-13T01:27:35.793Z,21.50
2022-09-13T01:31:08.269Z,21.60
2022-09-13T01:34:47.251Z,21.60
2022-09-13T01:38:23.286Z,21.60
2022-09-13T01:42:01.055Z,21.60
2022-09-13T01:45:36.739Z,21.70
2022-09-13T01:49:10.005Z,21.80
2022-09-13T01:52:41.002Z,21.70
2022-09-13T01:56:09.846Z,21.60
2022-09-13T01:59:43.413Z,21.60
2022-09-13T02:03:10.778Z,21.60
2022-09-13T02:06:41.420Z,21.60
2022-09-13T02:10:10.364Z,21.70
2022-09-13T02:13:38.235Z,21.70
2022-09-13T02:17:05.648Z,21.90
2022-09-13T02:20:31.688Z,21.70
2022-09-13T02:23:59.833Z,21.60
2022-09-13T02:27:25.873Z,21.70
2022-09-13T02:30:54.226Z,21.50
2022-09-13T02:34:20.113Z,21.50
2022-09-13T02:37:46.508Z,21.60
2022-09-13T02:41:17.380Z,21.60
2022-09-13T02:44:44.326Z,21.50
2022-09-13T02:48:12.708Z,21.60
2022-09-13T02:51:45.034Z,21.60
2022-09-13T02:55:17.241Z,21.70
2022-09-13T02:58:46.733Z,21.50
2022-09-13T03:02:13.925Z,21.60
2022-09-13T03:05:36.903Z,21.60
2022-09-13T03:09:04.792Z,21.70
2022-09-13T03:12:49.934Z,21.60
2022-09-13T03:16:29.082Z,21.50
2022-09-13T03:20:10.775Z,21.50
2022-09-13T03:23:46.532Z,21.50
2022-09-13T03:27:19.137Z,21.50
2022-09-13T03:30:48.917Z,21.40
2022-09-13T03:34:17.451Z,21.50
2022-09-13T03:37:49.354Z,21.60
2022-09-13T03:41:16.677Z,21.50
2022-09-13T03:44:42.203Z,21.40
2022-09-13T03:48:06.429Z,21.40
2022-09-13T03:51:31.109Z,21.40
2022-09-13T03:54:54.545Z,21.30
2022-09-13T03:58:20.733Z,21.20
2022-09-13T04:01:44.469Z,21.10
2022-09-13T04:05:07.931Z,21.20
2022-09-13T04:08:32.544Z,21.30
2022-09-13T04:11:55.395Z,21.40
2022-09-13T04:15:18.351Z,21.30
2022-09-13T04:18:41.197Z,21.30
2022-09-13T04:22:04.280Z,21.30
2022-09-13T04:25:28.800Z,21.50
2022-09-13T04:28:53.709Z,21.50
2022-09-13T04:32:16.578Z,21.40
2022-09-13T04:35:40.782Z,21.40
2022-09-13T04:39:04.063Z,21.40
2022-09-13T04:42:28.267Z,21.40
2022-09-13T04:45:51.819Z,21.30
2022-09-13T04:49:15.741Z,21.10
2022-09-13T04:52:38.642Z,21.10
2022-09-13T04:56:02.664Z,21.10
2022-09-13T04:59:27.828Z,21.20
2022-09-13T05:02:50.704Z,21.00
2022-09-13T05:06:15.190Z,21.20
2022-09-13T05:09:38.146Z,21.80
2022-09-13T05:13:01.277Z,22.20
2022-09-13T05:16:27.083Z,22.50
2022-09-13T05:19:50.162Z,22.70
2022-09-13T05:23:13.036Z,22.90
2022-09-13T05:26:36.456Z,22.90
2022-09-13T05:29:59.381Z,23.00
2022-09-13T05:33:23.837Z,23.10
2022-09-13T05:36:51.664Z,23.10
2022-09-13T05:40:16.884Z,23.10
2022-09-13T05:43:39.833Z,23.10
2022-09-13T05:47:02.769Z,23.10
2022-09-13T05:50:55.984Z,23.10
2022-09-13T05:54:13.498Z,23.20
2022-09-13T05:57:38.179Z,23.20
2022-09-13T06:01:01.106Z,23.20
2022-09-13T06:04:24.052Z,23.20
2022-09-13T06:07:48.309Z,23.20
2022-09-13T06:11:13.024Z,23.20
2022-09-13T06:14:35.913Z,23.20
2022-09-13T06:17:58.874Z,23.30
2022-09-13T06:21:28.281Z,23.30
2022-09-13T06:24:53.281Z,23.30
2022-09-13T06:28:16.161Z,23.30
2022-09-13T06:31:43.668Z,23.30
2022-09-13T06:35:07.772Z,23.40
2022-09-13T06:38:30.856Z,23.30
2022-09-13T06:41:55.109Z,23.30
2022-09-13T06:45:30.014Z,23.40
2022-09-13T06:48:53.081Z,23.40
2022-09-13T06:52:15.980Z,23.40
2022-09-13T06:55:38.869Z,23.40
2022-09-13T06:59:05.645Z,23.40
2022-09-13T07:02:28.648Z,23.40
2022-09-13T07:05:51.669Z,23.40
2022-09-13T07:09:17.944Z,23.40
2022-09-13T07:12:42.252Z,23.40
2022-09-13T07:16:09.245Z,23.40
2022-09-13T07:19:32.373Z,23.40
2022-09-13T07:22:55.261Z,23.40
2022-09-13T07:26:18.184Z,23.50
2022-09-13T07:29:41.150Z,23.40
2022-09-13T07:33:05.528Z,23.50
2022-09-13T07:36:30.226Z,23.50
2022-09-13T07:39:53.152Z,23.50
2022-09-13T07:43:16.394Z,23.50
2022-09-13T07:46:44.102Z,23.50
2022-09-13T07:50:09.232Z,23.60
2022-09-13T07:53:33.249Z,23.50
2022-09-13T07:56:56.234Z,23.60
2022-09-13T08:00:19.287Z,23.60
2022-09-13T08:03:42.388Z,23.60
2022-09-13T08:07:07.683Z,23.60
2022-09-13T08:10:30.614Z,23.60
2022-09-13T08:13:54.220Z,23.60
2022-09-13T08:17:17.273Z,23.70
2022-09-13T08:20:40.930Z,23.70
2022-09-13T08:24:06.714Z,23.70
2022-09-13T08:27:30.070Z,23.70
2022-09-13T08:30:53.044Z,23.70
2022-09-13T08:34:18.062Z,23.80
2022-09-13T08:37:41.040Z,23.80
2022-09-13T08:41:22.906Z,23.80
2022-09-13T08:44:48.964Z,23.80
2022-09-13T08:48:18.388Z,23.80
2022-09-13T08:51:47.202Z,23.80
2022-09-13T08:55:24.924Z,23.80
2022-09-13T08:59:12.292Z,23.80
2022-09-13T09:02:49.768Z,23.90
2022-09-13T09:06:17.766Z,23.90
2022-09-13T09:09:45.232Z,23.90
2022-09-13T09:13:13.888Z,23.90
2022-09-13T09:16:42.457Z,23.90
2022-09-13T09:20:17.746Z,23.90
2022-09-13T09:23:47.167Z,23.90
2022-09-13T09:27:15.425Z,24.00
2022-09-13T09:30:44.614Z,24.00
2022-09-13T09:34:18.529Z,24.00
2022-09-13T09:37:43.781Z,24.00
2022-09-13T09:41:13.904Z,24.00
2022-09-13T09:44:37.899Z,24.00
2022-09-13T09:48:06.597Z,24.00
2022-09-13T09:51:32.195Z,24.10
2022-09-13T09:55:03.793Z,24.10
2022-09-13T09:58:39.487Z,24.10
2022-09-13T10:02:07.807Z,24.20
2022-09-13T10:05:32.312Z,24.20
2022-09-13T10:09:01.356Z,24.20
2022-09-13T10:12:29.267Z,24.20
2022-09-13T10:15:58.111Z,24.30
2022-09-13T10:19:28.110Z,24.30
2022-09-13T10:23:21.094Z,24.30
2022-09-13T10:26:45.431Z,24.30
2022-09-13T10:30:33.817Z,24.30
2022-09-13T10:34:00.829Z,24.30
2022-09-13T10:37:30.703Z,24.40
2022-09-13T10:40:53.671Z,24.40
2022-09-13T10:44:29.542Z,24.40
2022-09-13T10:47:54.649Z,24.40
2022-09-13T10:51:37.898Z,24.40
2022-09-13T10:55:26.730Z,24.40
2022-09-13T10:58:49.810Z,24.40
2022-09-13T11:02:37.580Z,24.50
2022-09-13T11:06:10.838Z,24.50
2022-09-13T11:09:37.751Z,24.50
2022-09-13T11:13:07.379Z,24.60
2022-09-13T11:16:41.827Z,24.60
2022-09-13T11:20:21.724Z,24.70
2022-09-13T11:23:59.409Z,24.80
2022-09-13T11:27:30.990Z,24.90
2022-09-13T11:31:09.519Z,24.90
2022-09-13T11:34:49.322Z,25.00
2022-09-13T11:38:39.057Z,25.10
2022-09-13T11:42:10.630Z,25.20
2022-09-13T11:45:40.182Z,25.30
2022-09-13T11:49:27.120Z,25.60
2022-09-13T11:53:01.551Z,26.10
2022-09-13T11:56:32.227Z,26.40
2022-09-13T11:59:59.818Z,26.70
2022-09-13T12:03:31.532Z,27.10
2022-09-13T12:07:00.929Z,27.10
2022-09-13T12:10:28.643Z,27.10
2022-09-13T12:13:56.506Z,27.10
2022-09-13T12:17:27.956Z,27.30
2022-09-13T12:20:54.434Z,27.50
2022-09-13T12:24:21.040Z,27.50
2022-09-13T12:27:51.744Z,27.70
2022-09-13T12:31:20.431Z,27.70
2022-09-13T12:34:48.222Z,27.80
2022-09-13T12:39:00.532Z,27.80
2022-09-13T12:42:54.163Z,27.90
2022-09-13T12:46:42.531Z,27.60
2022-09-13T12:54:33.521Z,27.00
2022-09-13T12:58:04.802Z,27.20
2022-09-13T13:01:31.753Z,27.20
2022-09-13T13:04:58.660Z,27.70
2022-09-13T13:08:30.316Z,28.20
2022-09-13T13:11:54.494Z,28.60
2022-09-13T13:15:51.141Z,28.80
2022-09-13T13:23:15.597Z,28.90
2022-09-13T13:26:46.413Z,29.10
2022-09-13T13:30:56.298Z,29.10
2022-09-13T13:34:37.246Z,29.20
2022-09-13T13:41:57.021Z,29.20
2022-09-13T13:45:25.015Z,29.20
2022-09-13T13:52:37.282Z,29.30
2022-09-13T13:56:16.641Z,29.30
2022-09-13T13:59:40.936Z,29.20
2022-09-13T14:03:17.757Z,29.20
2022-09-13T14:06:49.952Z,29.00
2022-09-13T14:10:20.277Z,28.60
2022-09-13T14:13:59.393Z,28.20
2022-09-13T14:17:57.293Z,27.90
2022-09-13T14:21:24.269Z,27.90
2022-09-13T14:24:48.709Z,27.90
2022-09-13T14:28:17.536Z,28.00
2022-09-13T14:31:40.538Z,28.00
2022-09-13T14:35:14.769Z,28.00
2022-09-13T14:38:37.985Z,28.00
2022-09-13T14:42:02.833Z,28.20
2022-09-13T14:45:28.630Z,28.20
2022-09-13T14:48:55.804Z,28.00
2022-09-13T14:52:25.623Z,27.80
2022-09-13T14:55:52.430Z,27.60
2022-09-13T14:59:21.025Z,27.30
2022-09-13T15:02:49.633Z,27.20
2022-09-13T15:06:24.010Z,27.00
2022-09-13T15:09:48.418Z,26.90
2022-09-13T15:13:11.966Z,26.90
2022-09-13T15:16:34.936Z,26.80
2022-09-13T15:20:06.429Z,26.70
2022-09-13T15:23:33.669Z,26.70
2022-09-13T15:27:05.285Z,26.70
2022-09-13T15:30:30.198Z,26.50
2022-09-13T15:34:21.312Z,26.40
2022-09-13T15:37:44.358Z,26.30
2022-09-13T15:41:14.669Z,26.20
2022-09-13T15:44:42.529Z,26.20
2022-09-13T15:48:06.341Z,26.10
2022-09-13T15:51:30.355Z,26.10
2022-09-13T15:54:53.396Z,26.10
2022-09-13T15:58:16.626Z,26.10
2022-09-13T16:01:41.184Z,26.10
2022-09-13T16:05:04.630Z,26.10
2022-09-13T16:08:27.576Z,26.00
2022-09-13T16:11:52.181Z,26.00
2022-09-13T16:15:16.891Z,26.00
2022-09-13T16:18:41.342Z,26.00
2022-09-13T16:22:04.838Z,25.90
2022-09-13T16:25:28.243Z,25.90
2022-09-13T16:28:51.162Z,25.90
2022-09-13T16:32:14.479Z,25.90
2022-09-13T16:35:38.944Z,25.80
2022-09-13T16:39:02.305Z,25.90
2022-09-13T16:42:25.964Z,25.90
2022-09-13T16:45:50.347Z,25.90
2022-09-13T16:49:13.656Z,25.90
2022-09-13T16:52:38.292Z,26.20
2022-09-13T16:56:07.104Z,26.40
2022-09-13T16:59:30.275Z,26.40
2022-09-13T17:02:53.240Z,26.50
2022-09-13T17:06:18.366Z,26.50
2022-09-13T17:09:42.778Z,26.50
2022-09-13T17:13:05.686Z,26.50
2022-09-13T17:16:32.700Z,26.40
2022-09-13T17:19:55.728Z,26.40
2022-09-13T17:23:18.707Z,26.40
2022-09-13T17:26:44.102Z,26.40
2022-09-13T17:30:08.048Z,26.40
2022-09-13T17:33:30.951Z,26.30
2022-09-13T17:36:53.903Z,26.30
2022-09-13T17:40:17.471Z,26.30
2022-09-13T17:43:43.402Z,26.30
2022-09-13T17:47:06.713Z,26.20
2022-09-13T17:50:29.615Z,26.20
2022-09-13T17:53:54.022Z,26.20
2022-09-13T17:57:17.036Z,26.20
2022-09-13T18:00:41.346Z,26.10
2022-09-13T18:04:04.845Z,26.10
2022-09-13T18:07:27.760Z,26.10
2022-09-13T18:11:11.837Z,26.10
2022-09-13T18:14:33.716Z,26.10
2022-09-13T18:17:57.937Z,26.00
2022-09-13T18:21:22.520Z,26.00
2022-09-13T18:24:45.557Z,26.00
2022-09-13T18:28:08.460Z,26.00
2022-09-13T18:31:33.411Z,26.00
2022-09-13T18:34:58.473Z,25.90
2022-09-13T18:38:21.389Z,25.90
2022-09-13T18:41:45.210Z,25.90
2022-09-13T18:45:09.909Z,25.90
2022-09-13T18:48:35.240Z,25.90
2022-09-13T18:51:59.925Z,25.80
2022-09-13T18:55:22.819Z,25.80
2022-09-13T18:58:46.542Z,25.80
2022-09-13T19:02:11.067Z,25.80
2022-09-13T19:05:38.949Z,25.80
2022-09-13T19:09:03.990Z,25.80
2022-09-13T19:12:26.904Z,25.80
2022-09-13T19:15:50.244Z,25.80
2022-09-13T19:19:13.977Z,25.70
2022-09-13T19:22:37.308Z,25.70
2022-09-13T19:26:06.776Z,25.70
2022-09-13T19:29:30.169Z,25.70
2022-09-13T19:32:53.027Z,25.70
2022-09-13T19:36:17.638Z,25.70
2022-09-13T19:39:40.831Z,25.70
2022-09-13T19:43:05.194Z,25.60
2022-09-13T19:46:31.700Z,25.60
2022-09-13T19:49:54.852Z,25.60
2022-09-13T19:53:18.169Z,25.60
2022-09-13T19:56:42.749Z,25.60
2022-09-13T20:00:09.499Z,25.60
2022-09-13T20:03:32.880Z,25.60
2022-09-13T20:06:56.217Z,25.60
2022-09-13T20:10:19.498Z,25.60
2022-09-13T20:13:42.744Z,25.60
2022-09-13T20:17:07.266Z,25.60
2022-09-13T20:20:31.294Z,25.60
2022-09-13T20:23:56.151Z,25.50
2022-09-13T20:27:19.173Z,25.50
2022-09-13T20:30:42.710Z,25.50
2022-09-13T20:34:08.533Z,25.50
2022-09-13T20:37:31.399Z,25.50
2022-09-13T20:40:54.286Z,25.50
2022-09-13T20:44:17.199Z,25.50
2022-09-13T20:47:40.128Z,25.50
2022-09-13T20:51:06.434Z,25.40
2022-09-13T20:54:29.294Z,25.40
2022-09-13T20:57:52.481Z,25.40
2022-09-13T21:01:19.866Z,25.40
2022-09-13T21:04:43.173Z,25.40
2022-09-13T21:08:24.724Z,25.40
2022-09-13T21:11:48.504Z,25.40
2022-09-13T21:15:11.984Z,25.40
2022-09-13T21:18:35.480Z,25.30
2022-09-13T21:21:58.347Z,25.30
2022-09-13T21:25:22.572Z,25.30
2022-09-13T21:28:45.906Z,25.20
2022-09-13T21:32:08.857Z,25.30
2022-09-13T21:35:31.871Z,25.20
2022-09-13T21:38:55.930Z,25.20
2022-09-13T21:42:20.241Z,25.20
2022-09-13T21:45:43.138Z,25.20
2022-09-13T21:49:07.426Z,25.10
2022-09-13T21:52:30.291Z,25.10
2022-09-13T21:55:53.194Z,25.10
2022-09-13T21:59:19.222Z,25.10
2022-09-13T22:02:43.304Z,25.00
2022-09-13T22:06:07.568Z,25.00
2022-09-13T22:09:30.544Z,25.00
2022-09-13T22:12:53.453Z,25.00
2022-09-13T22:16:21.493Z,25.00
2022-09-13T22:19:44.473Z,24.90
2022-09-13T22:23:07.333Z,24.90
2022-09-13T22:26:39.374Z,24.90
2022-09-13T22:30:02.279Z,24.90
2022-09-13T22:33:26.522Z,24.90
2022-09-13T22:36:49.441Z,24.90
2022-09-13T22:40:12.519Z,24.90
2022-09-13T22:43:35.897Z,24.80
2022-09-13T22:47:00.322Z,24.80
2022-09-13T22:50:24.577Z,24.80
2022-09-13T22:53:49.004Z,24.80
2022-09-13T22:57:11.885Z,24.80
2022-09-13T23:00:34.780Z,24.80
2022-09-13T23:03:58.313Z,24.70
2022-09-13T23:07:22.558Z,24.70
2022-09-13T23:10:45.474Z,24.70
2022-09-13T23:14:11.112Z,24.70
2022-09-13T23:17:34.029Z,24.70
2022-09-13T23:20:57.482Z,24.70
2022-09-13T23:24:22.124Z,24.60
2022-09-13T23:27:45.112Z,24.60
2022-09-13T23:31:09.991Z,24.60
2022-09-13T23:34:32.874Z,24.60
2022-09-13T23:37:55.719Z,24.60
2022-09-13T23:41:20.497Z,24.60
2022-09-13T23:44:43.352Z,24.60
2022-09-13T23:48:06.265Z,24.50
2022-09-13T23:51:29.248Z,24.50
2022-09-13T23:54:52.287Z,24.50
2022-09-13T23:58:16.551Z,24.50
